sim
Sign-in with your pilot id or email,
or register
Callsign
Passwort

Schedule Details

Flight Number: DLH1839 (1)
Departure: Tenerife South Airport (GCTS) at 14:20
Arrival: Munich Airport (EDDM) at 19:00
Route: Lufthansa Passenger Schedule. Enter filed route here before submitting Pirep.

Weather Information
Getting current METAR information for GCTS 211930Z 09007KT 060V130 CAVOK 24/21 Q1017 NOSIG
Getting current METAR information for EDDM 211950Z 00000KT CAVOK 13/12 Q1016 NOSIG

Schedule Frequency

Route Map